Southern Shores, North Carolina
Current Conditions -  °F | °C
As of 8:35 AM on Sunday 21 Dec 2014 (Local Time) from KFFA Reporting Station
Clear Clear  
Wind Chill: 40°   Ceiling: Unl
Heat Index: 43°   Visibility: 10mi
Dew Point: 33°   Wind: 5mph
Humidity: 69%   Direction: 20°NNE
Pressure: 30.29"   Gusts: NA
Location:  36.1034°N, 75.7289°W
Report Text: KFFA 211335Z AUTO 02004KT 10SM CLR 06/01 A3029 RMK AO2 T00590007
Loading
Personal Weather Stations






























Interactive Weather Map New forecast layout! Learn more

10-Day Weather Forecast

Advertisements
Track Severe Weather on mobile